Time;durP1;ratioP1;P1;durP2;ratioP2;P2;SDS_P1;SDS_P2;PMS_P1;PMS_P2;Temp;Humidity;BMP_temperature;BMP_pressure;BME280_temperature;BME280_humidity;BME280_pressure;Samples;Min_cycle;Max_cycle;Signal;HPM_P1;HPM_P2
2022/05/13 00:00:01;;;;;;;1.33;1.10;;;11.20;99.90;;;;;;8325517;28;20214;-77
2022/05/13 00:04:02;;;;;;;1.30;0.90;;;11.10;99.90;;;;;;8326379;28;20195;-78
2022/05/13 00:08:03;;;;;;;1.60;1.00;;;11.10;99.90;;;;;;8325361;28;20186;-77
2022/05/13 00:12:05;;;;;;;1.70;1.30;;;11.00;99.90;;;;;;8337811;28;20248;-78
2022/05/13 00:16:06;;;;;;;1.70;1.47;;;11.00;99.90;;;;;;8326793;28;20184;-79
2022/05/13 00:20:08;;;;;;;1.60;1.30;;;11.00;99.90;;;;;;8333042;28;20200;-78
2022/05/13 00:24:09;;;;;;;1.77;1.50;;;10.90;99.90;;;;;;8327343;28;20192;-78
2022/05/13 00:28:10;;;;;;;3.40;1.20;;;10.90;99.90;;;;;;8319956;28;20222;-78
2022/05/13 00:32:11;;;;;;;1.40;1.30;;;10.80;99.90;;;;;;8332241;28;20229;-78
2022/05/13 00:36:12;;;;;;;2.20;1.77;;;10.80;1.00;;;;;;8325529;28;20190;-77
2022/05/13 00:40:15;;;;;;;3.07;1.53;;;10.70;1.00;;;;;;8308379;28;20205;-78
2022/05/13 00:44:16;;;;;;;2.60;1.87;;;10.60;27.60;;;;;;8341764;28;20179;-77
2022/05/13 00:48:17;;;;;;;3.57;1.87;;;10.60;99.90;;;;;;8344087;28;20197;-78
2022/05/13 00:52:18;;;;;;;1.90;1.60;;;10.50;99.90;;;;;;8327671;28;20214;-77
2022/05/13 00:56:19;;;;;;;2.33;1.90;;;10.40;1.00;;;;;;8349023;28;20245;-78
2022/05/13 01:00:21;;;;;;;2.53;1.80;;;10.30;1.00;;;;;;8340543;28;20236;-78
2022/05/13 01:04:23;;;;;;;2.77;2.37;;;10.30;1.00;;;;;;8328324;28;20182;-77
2022/05/13 01:08:24;;;;;;;2.50;1.80;;;10.30;1.00;;;;;;8326740;28;20205;-78
2022/05/13 01:12:31;;;;;;;2.10;1.90;;;10.30;1.00;;;;;;8339792;28;20221;-79
2022/05/13 01:20:55;;;;;;;3.90;2.53;;;10.20;1.00;;;;;;8341538;28;20204;-79
2022/05/13 01:24:56;;;;;;;3.60;2.73;;;10.20;1.00;;;;;;8334741;28;20185;-79
2022/05/13 01:28:57;;;;;;;6.97;2.37;;;10.10;1.00;;;;;;8332862;28;20208;-78
2022/05/13 01:32:58;;;;;;;2.63;1.93;;;10.00;1.00;;;;;;8327932;28;20470;-78
2022/05/13 01:36:59;;;;;;;4.27;2.23;;;9.90;1.00;;;;;;8326634;28;20189;-78
2022/05/13 01:41:01;;;;;;;4.33;2.40;;;9.80;30.00;;;;;;8302189;28;20650;-78
2022/05/13 01:45:03;;;;;;;3.57;2.77;;;9.70;99.90;;;;;;8343706;28;20182;-79
2022/05/13 01:49:04;;;;;;;5.00;2.70;;;9.70;99.90;;;;;;8323324;28;20183;-78
2022/05/13 01:53:05;;;;;;;3.93;2.50;;;9.60;99.90;;;;;;8325136;28;20210;-78
2022/05/13 01:57:06;;;;;;;2.50;2.30;;;9.50;99.90;;;;;;8322364;28;20186;-78
2022/05/13 02:01:08;;;;;;;3.00;2.70;;;9.40;99.90;;;;;;8325844;28;20193;-79
2022/05/13 02:05:09;;;;;;;3.93;2.57;;;9.40;1.00;;;;;;8313717;28;20289;-77
2022/05/13 02:09:10;;;;;;;3.10;2.70;;;9.20;1.00;;;;;;8328910;28;20486;-78
2022/05/13 02:13:12;;;;;;;3.20;2.20;;;9.10;99.90;;;;;;8317263;28;20220;-78
2022/05/13 02:17:13;;;;;;;2.60;2.40;;;9.00;99.90;;;;;;8324770;28;20198;-78
2022/05/13 02:21:14;;;;;;;2.73;2.27;;;8.90;1.00;;;;;;8328679;28;20587;-78
2022/05/13 02:25:15;;;;;;;3.53;2.57;;;8.90;1.00;;;;;;8322664;28;20255;-77
2022/05/13 02:29:17;;;;;;;4.07;2.50;;;8.80;99.90;;;;;;8320790;28;20209;-79
2022/05/13 02:33:18;;;;;;;4.07;2.70;;;8.70;99.90;;;;;;8324037;28;20221;-77
2022/05/13 02:37:18;;;;;;;3.57;2.27;;;8.60;99.90;;;;;;8323004;28;20206;-77
2022/05/13 02:41:20;;;;;;;3.20;2.40;;;8.60;99.90;;;;;;8345685;28;20206;-78
2022/05/13 02:45:20;;;;;;;2.97;2.10;;;8.50;1.00;;;;;;8327257;28;20576;-79
2022/05/13 02:49:22;;;;;;;3.23;2.63;;;8.50;1.00;;;;;;8326536;28;20201;-79
2022/05/13 02:53:23;;;;;;;3.03;2.43;;;8.40;99.90;;;;;;8326100;28;20325;-78
2022/05/13 02:57:24;;;;;;;2.50;2.30;;;8.40;99.90;;;;;;8328485;28;20186;-78
2022/05/13 03:01:25;;;;;;;2.40;2.20;;;8.30;99.90;;;;;;8323699;28;20186;-78
2022/05/13 03:05:26;;;;;;;3.60;2.77;;;8.30;1.00;;;;;;8337671;28;20201;-78
2022/05/13 03:09:27;;;;;;;3.23;2.77;;;8.30;1.00;;;;;;8321857;28;20191;-78
2022/05/13 03:13:28;;;;;;;4.83;2.60;;;8.30;1.00;;;;;;8322953;28;20278;-78
2022/05/13 03:17:29;;;;;;;2.60;2.40;;;8.20;1.00;;;;;;8322058;28;20186;-78
2022/05/13 03:21:29;;;;;;;4.83;2.47;;;8.20;99.90;;;;;;8318159;28;20279;-77
2022/05/13 03:25:30;;;;;;;3.47;2.50;;;8.30;99.90;;;;;;8332234;28;20197;-80
2022/05/13 03:29:31;;;;;;;5.07;2.90;;;8.40;99.90;;;;;;8326217;28;20206;-75
2022/05/13 03:33:32;;;;;;;3.53;2.83;;;8.50;99.90;;;;;;8329429;28;20205;-81
2022/05/13 03:37:33;;;;;;;2.60;2.33;;;8.70;25.90;;;;;;8323180;28;20235;-76
2022/05/13 03:41:34;;;;;;;3.63;2.63;;;8.90;99.90;;;;;;8331215;28;20213;-76
2022/05/13 03:45:36;;;;;;;4.97;2.33;;;9.00;71.40;;;;;;8344538;28;20198;-76
2022/05/13 03:49:37;;;;;;;6.23;2.37;;;9.10;1.00;;;;;;8345542;28;20197;-82
2022/05/13 03:53:38;;;;;;;4.60;2.63;;;9.20;1.00;;;;;;8319493;28;20190;-76
2022/05/13 03:57:40;;;;;;;3.53;2.77;;;10.00;99.90;;;;;;8336533;28;20183;-78
2022/05/13 04:01:41;;;;;;;3.53;2.67;;;11.00;1.00;;;;;;8324874;28;20183;-75
2022/05/13 04:10:07;;;;;;;4.13;2.33;;;12.70;1.00;;;;;;8343249;28;20244;-76
2022/05/13 04:18:30;;;;;;;5.50;2.40;;;14.30;99.90;;;;;;8341616;28;20208;-76
2022/05/13 04:22:31;;;;;;;3.70;2.87;;;14.90;99.90;;;;;;8327001;28;20613;-76
2022/05/13 04:26:33;;;;;;;6.03;2.10;;;15.60;1.00;;;;;;8339459;28;20205;-75
2022/05/13 04:30:34;;;;;;;9.90;2.83;;;16.20;1.00;;;;;;8320586;28;20240;-80
2022/05/13 04:34:35;;;;;;;5.97;2.40;;;16.80;1.00;;;;;;8331311;28;20190;-77
2022/05/13 04:38:36;;;;;;;3.67;2.40;;;17.20;1.00;;;;;;8326805;28;20206;-77
2022/05/13 04:42:52;;;;;;;4.50;2.10;;;17.60;99.90;;;;;;8329559;28;20193;-75
2022/05/13 04:46:52;;;;;;;3.57;1.90;;;17.70;99.90;;;;;;8312485;28;20193;-76
2022/05/13 04:50:57;;;;;;;4.40;2.27;;;17.60;1.00;;;;;;8340062;28;20213;-75
2022/05/13 04:54:59;;;;;;;5.23;3.37;;;17.70;99.90;;;;;;8321076;28;20239;-79
2022/05/13 04:59:00;;;;;;;3.93;2.90;;;17.60;99.90;;;;;;8342332;28;20185;-78
2022/05/13 05:03:01;;;;;;;4.27;2.60;;;17.20;1.00;;;;;;8323763;28;20185;-81
2022/05/13 05:07:02;;;;;;;6.27;3.37;;;16.80;1.00;;;;;;8324879;28;20186;-76
2022/05/13 05:11:04;;;;;;;5.57;2.83;;;16.40;24.20;;;;;;8336302;28;20221;-76
2022/05/13 05:15:06;;;;;;;5.10;3.00;;;16.20;51.20;;;;;;8319705;28;20260;-79
2022/05/13 05:19:07;;;;;;;4.40;2.53;;;16.10;99.90;;;;;;8317862;28;20208;-76
2022/05/13 05:23:19;;;;;;;3.87;2.60;;;16.00;99.90;;;;;;8335151;28;20197;-78
2022/05/13 05:27:20;;;;;;;4.53;2.60;;;15.90;99.90;;;;;;8335858;28;20218;-75
2022/05/13 05:31:21;;;;;;;3.37;2.33;;;16.00;99.90;;;;;;8325967;28;20281;-76
2022/05/13 05:35:24;;;;;;;3.60;2.17;;;16.10;99.90;;;;;;8331517;28;20182;-79
2022/05/13 05:58:35;;;;;;;3.03;1.60;;;17.60;1.00;;;;;;8334505;28;20237;-75
2022/05/13 06:02:35;;;;;;;2.43;1.57;;;18.00;1.00;;;;;;8333549;28;20257;-76
2022/05/13 06:06:36;;;;;;;3.07;1.50;;;18.20;1.00;;;;;;8320342;28;20212;-78
2022/05/13 06:10:37;;;;;;;2.87;1.57;;;18.40;99.90;;;;;;8326096;28;20245;-81
2022/05/13 06:14:38;;;;;;;1.93;1.30;;;18.60;99.90;;;;;;8332480;28;20193;-77
2022/05/13 06:18:39;;;;;;;2.07;1.13;;;19.00;99.90;;;;;;8335946;28;20192;-77
2022/05/13 06:22:40;;;;;;;1.80;1.07;;;19.50;99.90;;;;;;8331425;28;20218;-77
2022/05/13 06:26:41;;;;;;;3.20;1.30;;;19.90;99.90;;;;;;8324286;28;20205;-81
2022/05/13 06:30:42;;;;;;;2.23;1.30;;;20.20;99.90;;;;;;8349899;28;20289;-77
2022/05/13 06:34:42;;;;;;;2.30;1.00;;;20.40;99.90;;;;;;8346879;28;20437;-81
2022/05/13 06:38:43;;;;;;;1.37;0.97;;;20.60;47.00;;;;;;8326026;28;20224;-79
2022/05/13 06:42:45;;;;;;;3.50;1.33;;;20.80;1.00;;;;;;8335695;28;20194;-75
2022/05/13 06:46:47;;;;;;;2.77;0.97;;;20.80;1.00;;;;;;8326686;28;20202;-79
2022/05/13 06:50:48;;;;;;;2.50;1.20;;;20.70;1.00;;;;;;8324346;28;20245;-75
2022/05/13 06:54:49;;;;;;;2.40;1.27;;;20.80;1.00;;;;;;8325507;28;20232;-79
2022/05/13 06:58:52;;;;;;;0.93;0.73;;;20.80;1.00;;;;;;8325086;28;20217;-77
2022/05/13 07:02:53;;;;;;;2.60;0.80;;;20.60;1.00;;;;;;8333140;28;20182;-78
2022/05/13 07:06:54;;;;;;;2.57;1.00;;;20.90;1.00;;;;;;8344363;28;20231;-79
2022/05/13 07:10:54;;;;;;;1.57;0.90;;;21.30;1.00;;;;;;8328224;28;20221;-76
2022/05/13 07:14:55;;;;;;;2.13;1.00;;;21.80;1.00;;;;;;8346460;28;20252;-76
2022/05/13 07:18:56;;;;;;;1.97;0.90;;;22.00;1.00;;;;;;8325820;28;20197;-79
2022/05/13 07:22:57;;;;;;;4.90;1.40;;;22.30;1.00;;;;;;8323668;28;20354;-77
2022/05/13 07:27:00;;;;;;;1.83;0.70;;;22.40;1.00;;;;;;8330917;28;20197;-77
2022/05/13 07:31:01;;;;;;;2.03;0.83;;;22.60;1.00;;;;;;8331419;28;20624;-77
2022/05/13 07:35:03;;;;;;;2.17;0.80;;;22.50;1.00;;;;;;8335804;28;20234;-82
2022/05/13 07:43:24;;;;;;;1.90;0.70;;;22.30;1.00;;;;;;8340079;28;20217;-76
2022/05/13 07:47:24;;;;;;;3.63;1.20;;;21.90;1.00;;;;;;8345426;28;20625;-79
2022/05/13 07:51:26;;;;;;;2.47;0.93;;;22.00;1.00;;;;;;8329255;28;20222;-81
2022/05/13 07:55:27;;;;;;;3.37;0.90;;;22.20;1.00;;;;;;8334090;28;20198;-81
2022/05/13 07:59:30;;;;;;;2.50;0.97;;;22.60;1.00;;;;;;8336411;28;20190;-81
2022/05/13 08:03:31;;;;;;;2.20;0.90;;;22.90;1.00;;;;;;8333275;28;20191;-77
2022/05/13 08:07:32;;;;;;;2.77;0.90;;;22.80;1.00;;;;;;8339418;28;20189;-77
2022/05/13 08:11:33;;;;;;;1.40;0.70;;;22.70;1.00;;;;;;8338563;28;20217;-78
2022/05/13 08:15:34;;;;;;;2.77;1.00;;;22.70;1.00;;;;;;8331330;28;20189;-77
2022/05/13 08:19:35;;;;;;;3.13;0.80;;;22.90;1.00;;;;;;8341230;28;20217;-77
2022/05/13 08:23:36;;;;;;;2.90;1.00;;;23.30;1.00;;;;;;8346822;28;20186;-78
2022/05/13 08:27:37;;;;;;;0.80;0.63;;;23.50;1.00;;;;;;8331463;28;20202;-78
2022/05/13 08:31:38;;;;;;;1.40;0.70;;;22.80;1.00;;;;;;8327653;28;20247;-78
2022/05/13 08:35:46;;;;;;;1.70;0.80;;;22.80;1.00;;;;;;8322640;28;20284;-77
2022/05/13 08:39:47;;;;;;;3.43;1.00;;;23.00;1.00;;;;;;8320390;28;20212;-77
2022/05/13 08:43:53;;;;;;;3.70;1.00;;;23.20;1.00;;;;;;8324761;28;20281;-77
2022/05/13 08:47:57;;;;;;;1.70;0.80;;;23.50;1.00;;;;;;8340344;28;20190;-77
2022/05/13 08:56:38;;;;;;;1.83;1.00;;;23.40;1.00;;;;;;8345092;28;20280;-81
2022/05/13 09:00:44;;;;;;;3.40;1.20;;;23.50;1.00;;;;;;8330123;28;20471;-83
2022/05/13 09:04:59;;;;;;;2.83;1.07;;;23.50;1.00;;;;;;8322509;28;20194;-81
2022/05/13 09:09:07;;;;;;;2.80;1.00;;;23.20;1.00;;;;;;8328924;28;20186;-77
2022/05/13 09:13:26;;;;;;;4.17;0.90;;;23.00;1.00;;;;;;8323007;28;20213;-76
2022/05/13 09:17:41;;;;;;;2.90;0.80;;;23.10;1.00;;;;;;8331847;28;20206;-77
2022/05/13 09:21:43;;;;;;;2.93;0.80;;;23.90;1.00;;;;;;8340903;28;20193;-76
2022/05/13 09:26:13;;;;;;;2.63;1.03;;;24.70;1.00;;;;;;8356318;28;20189;-77
2022/05/13 09:30:21;;;;;;;2.13;1.00;;;25.50;1.00;;;;;;8325445;28;20300;-77
2022/05/13 09:34:39;;;;;;;2.97;1.20;;;25.30;1.00;;;;;;8340219;28;20201;-77
2022/05/13 09:38:46;;;;;;;3.73;1.07;;;24.00;1.00;;;;;;8334660;28;20205;-78
2022/05/13 09:42:51;;;;;;;2.67;1.20;;;23.60;1.00;;;;;;8324904;28;20186;-81
2022/05/13 09:47:12;;;;;;;3.23;1.30;;;23.90;1.00;;;;;;8316816;28;20190;-77
2022/05/13 09:51:28;;;;;;;2.90;0.87;;;24.30;1.00;;;;;;8340745;28;20198;-81
2022/05/13 09:55:49;;;;;;;2.30;0.93;;;24.80;1.00;;;;;;8319227;28;20221;-78
2022/05/13 10:00:01;;;;;;;2.50;0.80;;;25.40;1.00;;;;;;8346072;28;20213;-79
2022/05/13 10:04:11;;;;;;;2.33;0.90;;;25.80;1.00;;;;;;8324363;28;20192;-77
2022/05/13 10:08:20;;;;;;;3.53;0.97;;;25.80;1.00;;;;;;8333134;28;20178;-77
2022/05/13 10:17:14;;;;;;;1.77;1.00;;;23.10;1.00;;;;;;8344332;28;20201;-78
2022/05/13 10:21:24;;;;;;;2.67;0.90;;;22.30;1.00;;;;;;8319986;28;20190;-76
2022/05/13 10:25:29;;;;;;;1.70;0.97;;;22.40;1.00;;;;;;8319225;28;20260;-79
2022/05/13 10:29:30;;;;;;;3.53;0.90;;;23.00;1.00;;;;;;8342380;28;20202;-77
2022/05/13 10:33:49;;;;;;;1.83;1.00;;;23.60;1.00;;;;;;8321589;28;20301;-79
2022/05/13 10:38:05;;;;;;;2.77;0.80;;;23.40;1.00;;;;;;8329556;28;20567;-81
2022/05/13 10:42:28;;;;;;;1.33;0.80;;;23.60;1.00;;;;;;8320588;28;20217;-81
2022/05/13 10:46:50;;;;;;;1.50;0.70;;;24.10;1.00;;;;;;8331641;28;20308;-79
2022/05/13 10:51:04;;;;;;;5.67;1.20;;;24.50;1.00;;;;;;8325582;28;20212;-78
2022/05/13 10:55:21;;;;;;;1.73;0.90;;;23.60;1.00;;;;;;8324617;28;20194;-76
2022/05/13 10:59:27;;;;;;;6.67;0.87;;;23.70;1.00;;;;;;8333293;28;20189;-75
2022/05/13 11:03:37;;;;;;;1.67;0.80;;;23.40;1.00;;;;;;8335855;28;20190;-79
2022/05/13 11:07:51;;;;;;;2.10;0.90;;;23.10;1.00;;;;;;8336485;28;20217;-77
2022/05/13 11:12:19;;;;;;;3.47;0.90;;;23.60;1.00;;;;;;8340781;28;20206;-76
2022/05/13 11:16:42;;;;;;;2.70;0.70;;;23.60;1.00;;;;;;8311698;28;20195;-78
2022/05/13 11:20:59;;;;;;;3.73;1.07;;;22.50;1.00;;;;;;8344813;28;20219;-77
2022/05/13 11:30:21;;;;;;;2.40;0.80;;;22.90;1.00;;;;;;8346137;28;20252;-80
2022/05/13 11:34:41;;;;;;;2.80;0.90;;;22.90;1.00;;;;;;8327247;28;20190;-76
2022/05/13 11:38:43;;;;;;;1.87;0.90;;;22.80;1.00;;;;;;8319949;28;20297;-80
2022/05/13 11:47:17;;;;;;;1.23;0.70;;;22.60;1.00;;;;;;8342493;28;20204;-80
2022/05/13 11:51:28;;;;;;;1.40;0.70;;;22.60;1.00;;;;;;8325310;28;20271;-76
2022/05/13 11:55:41;;;;;;;2.37;1.07;;;23.40;1.00;;;;;;8330794;28;20193;-76
2022/05/13 11:59:48;;;;;;;1.60;0.80;;;23.00;1.00;;;;;;8332928;28;20244;-75
2022/05/13 12:04:11;;;;;;;4.73;0.80;;;23.00;1.00;;;;;;8329615;28;20216;-76
2022/05/13 12:08:31;;;;;;;2.67;1.10;;;22.30;1.00;;;;;;8326246;28;20187;-75
2022/05/13 12:12:57;;;;;;;4.30;1.33;;;21.90;1.00;;;;;;8314965;28;20218;-77
2022/05/13 12:17:07;;;;;;;2.67;1.00;;;21.80;1.00;;;;;;8326046;28;20186;-79
2022/05/13 12:21:29;;;;;;;5.17;1.10;;;22.10;1.00;;;;;;8320422;28;20185;-78
2022/05/13 12:25:33;;;;;;;5.23;1.40;;;22.40;1.00;;;;;;8339001;28;20231;-77
2022/05/13 12:29:40;;;;;;;2.80;1.10;;;22.80;1.00;;;;;;8328451;28;20225;-77
2022/05/13 12:37:33;;;;;;;2.97;1.00;;;23.20;1.00;;;;;;8318969;28;20218;-81
2022/05/13 12:38:14;;;;;;;2.43;0.77;;;23.10;1.00;;;;;;8352815;28;20198;-78
2022/05/13 12:42:16;;;;;;;2.67;0.80;;;22.90;1.00;;;;;;8320909;28;20222;-77
2022/05/13 12:46:41;;;;;;;2.70;1.00;;;23.20;1.00;;;;;;8342150;28;20178;-78
2022/05/13 12:50:53;;;;;;;4.50;0.90;;;23.00;1.00;;;;;;8324849;28;20226;-77
2022/05/13 12:55:06;;;;;;;1.80;0.80;;;22.80;1.00;;;;;;8319519;28;20210;-80
2022/05/13 12:59:15;;;;;;;1.87;0.70;;;23.00;1.00;;;;;;8338672;28;20190;-76
2022/05/13 13:03:18;;;;;;;3.17;1.07;;;22.60;1.00;;;;;;8341782;28;20197;-77
2022/05/13 13:07:21;;;;;;;2.77;0.80;;;22.40;1.00;;;;;;8323220;28;20182;-81
2022/05/13 13:11:35;;;;;;;4.13;0.93;;;22.00;1.00;;;;;;8348313;28;20201;-77
2022/05/13 13:15:47;;;;;;;2.43;0.80;;;22.30;1.00;;;;;;8333538;28;20277;-76
2022/05/13 13:19:48;;;;;;;2.30;1.17;;;22.10;1.00;;;;;;8298199;28;20617;-79
2022/05/13 13:23:50;;;;;;;2.17;1.00;;;21.70;1.00;;;;;;8343024;28;20206;-79
2022/05/13 13:28:00;;;;;;;3.33;0.90;;;21.40;1.00;;;;;;8340641;28;20280;-76
2022/05/13 13:32:05;;;;;;;4.50;1.03;;;21.60;1.00;;;;;;8329080;28;20224;-77
2022/05/13 13:36:13;;;;;;;4.50;1.23;;;21.70;1.00;;;;;;8329988;28;20217;-79
2022/05/13 13:40:21;;;;;;;2.37;0.87;;;22.20;1.00;;;;;;8325813;28;20217;-79
2022/05/13 13:44:22;;;;;;;4.20;0.80;;;22.30;1.00;;;;;;8313168;28;20187;-77
2022/05/13 13:48:41;;;;;;;2.30;0.97;;;22.00;1.00;;;;;;8320300;28;20277;-77
2022/05/13 13:52:42;;;;;;;6.53;1.10;;;22.00;1.00;;;;;;8322269;28;20237;-76
2022/05/13 13:56:58;;;;;;;4.03;1.20;;;22.50;1.00;;;;;;8338222;28;20224;-75
2022/05/13 14:01:14;;;;;;;3.53;1.00;;;22.90;1.00;;;;;;8335969;28;20221;-76
2022/05/13 14:05:29;;;;;;;2.47;1.23;;;22.60;1.00;;;;;;8325502;28;20216;-75
2022/05/13 14:09:39;;;;;;;3.97;1.23;;;22.60;1.00;;;;;;8332136;28;20286;-80
2022/05/13 14:13:43;;;;;;;2.07;1.00;;;21.80;1.00;;;;;;8319062;28;20289;-75
2022/05/13 14:17:54;;;;;;;5.10;1.13;;;21.50;1.00;;;;;;8332220;28;20195;-80
2022/05/13 14:21:59;;;;;;;5.10;1.47;;;21.50;1.00;;;;;;8324802;28;20198;-76
2022/05/13 14:26:04;;;;;;;5.00;1.20;;;21.50;1.00;;;;;;8320710;28;20255;-77
2022/05/13 14:30:10;;;;;;;2.40;1.27;;;21.60;1.00;;;;;;8326924;28;20192;-75
2022/05/13 14:34:19;;;;;;;5.17;0.80;;;21.60;1.00;;;;;;8332862;28;20240;-75
2022/05/13 14:43:27;;;;;;;3.57;1.30;;;21.50;1.00;;;;;;8345701;28;20202;-81
2022/05/13 14:47:28;;;;;;;5.27;0.90;;;21.50;1.00;;;;;;8332418;28;20215;-76
2022/05/13 14:51:29;;;;;;;2.13;0.90;;;21.20;1.00;;;;;;8336006;28;20229;-77
2022/05/13 14:55:42;;;;;;;5.80;1.30;;;21.10;1.00;;;;;;8326311;28;20185;-76
2022/05/13 14:59:53;;;;;;;5.47;1.03;;;21.30;1.00;;;;;;8326281;28;20313;-76
2022/05/13 15:03:56;;;;;;;4.63;1.23;;;21.20;1.00;;;;;;8334243;28;20477;-78
2022/05/13 15:07:58;;;;;;;7.03;1.27;;;21.00;1.00;;;;;;8329900;28;20181;-76
2022/05/13 15:12:04;;;;;;;3.10;0.97;;;21.10;1.00;;;;;;8334457;28;20213;-80
2022/05/13 15:16:05;;;;;;;4.33;1.00;;;21.10;1.00;;;;;;8345251;28;20207;-77
2022/05/13 15:20:07;;;;;;;5.47;1.03;;;20.80;1.00;;;;;;8342989;28;20198;-76
2022/05/13 15:24:08;;;;;;;8.57;1.50;;;20.70;1.00;;;;;;8324846;28;20187;-77
2022/05/13 15:28:10;;;;;;;12.47;1.53;;;20.50;1.00;;;;;;8330106;28;20202;-75
2022/05/13 15:32:14;;;;;;;5.53;1.07;;;20.50;1.00;;;;;;8342886;28;20268;-75
2022/05/13 15:36:27;;;;;;;8.17;1.70;;;21.00;1.00;;;;;;8322645;28;20185;-75
2022/05/13 15:40:28;;;;;;;6.73;1.50;;;21.10;1.00;;;;;;8328865;28;20210;-75
2022/05/13 15:44:30;;;;;;;3.63;1.17;;;21.20;1.00;;;;;;8331696;28;20236;-77
2022/05/13 15:48:30;;;;;;;4.17;1.00;;;21.10;1.00;;;;;;8334972;28;20198;-75
2022/05/13 15:52:40;;;;;;;3.07;1.13;;;20.50;1.00;;;;;;8334844;28;20264;-76
2022/05/13 15:56:41;;;;;;;7.47;1.87;;;20.20;1.00;;;;;;8329644;28;20194;-76
2022/05/13 16:00:42;;;;;;;5.53;1.57;;;19.80;1.00;;;;;;8339309;28;20252;-80
2022/05/13 16:04:46;;;;;;;4.47;1.20;;;19.70;1.00;;;;;;8331462;28;20186;-77
2022/05/13 16:08:47;;;;;;;5.33;1.60;;;19.50;1.00;;;;;;8347065;28;20229;-77
2022/05/13 16:13:01;;;;;;;6.83;1.50;;;19.40;1.00;;;;;;8322504;28;20214;-76
2022/05/13 16:17:07;;;;;;;4.40;1.60;;;19.20;1.00;;;;;;8338174;28;20190;-75
2022/05/13 16:21:13;;;;;;;6.23;1.60;;;19.20;1.00;;;;;;8341781;28;20224;-77
2022/05/13 16:25:17;;;;;;;5.57;1.30;;;19.20;1.00;;;;;;8327112;28;20197;-75
2022/05/13 16:29:18;;;;;;;4.63;1.50;;;19.20;1.00;;;;;;8321693;28;20213;-75
2022/05/13 16:33:19;;;;;;;5.37;1.40;;;19.20;1.00;;;;;;8329790;28;20217;-77
2022/05/13 16:41:40;;;;;;;4.40;1.53;;;18.70;1.00;;;;;;8340687;28;20241;-79
2022/05/13 16:45:41;;;;;;;4.00;1.87;;;18.50;1.00;;;;;;8324293;28;20202;-77
2022/05/13 16:49:42;;;;;;;5.43;1.77;;;18.50;1.00;;;;;;8328843;28;20186;-77
2022/05/13 16:53:43;;;;;;;6.63;1.50;;;18.50;1.00;;;;;;8325866;28;20271;-77
2022/05/13 16:57:44;;;;;;;5.90;1.90;;;18.40;1.00;;;;;;8325598;28;20193;-75
2022/05/13 17:01:45;;;;;;;5.67;1.70;;;18.40;1.00;;;;;;8318778;28;20194;-77
2022/05/13 17:05:47;;;;;;;6.73;1.63;;;18.50;1.00;;;;;;8329932;28;20190;-76
2022/05/13 17:22:45;;;;;;;7.50;2.00;;;17.80;1.00;;;;;;8345910;28;20268;-75
2022/05/13 17:26:53;;;;;;;4.47;1.50;;;17.70;1.00;;;;;;8327485;28;20300;-77
2022/05/13 17:30:53;;;;;;;5.83;2.10;;;17.70;1.00;;;;;;8335969;28;20214;-77
2022/05/13 17:34:55;;;;;;;6.93;2.97;;;17.70;1.00;;;;;;8335142;28;20216;-75
2022/05/13 17:38:56;;;;;;;7.33;1.97;;;17.60;1.00;;;;;;8319415;28;20288;-80
2022/05/13 17:42:59;;;;;;;3.57;1.97;;;17.60;1.00;;;;;;8342296;28;20185;-77
2022/05/13 17:47:00;;;;;;;5.17;1.63;;;17.50;1.00;;;;;;8320509;28;20186;-76
2022/05/13 17:51:03;;;;;;;5.73;2.20;;;17.40;1.00;;;;;;8336384;28;20300;-76
2022/05/13 17:55:05;;;;;;;3.47;1.80;;;17.20;1.00;;;;;;8341985;28;20261;-76
2022/05/13 17:59:06;;;;;;;4.73;1.57;;;17.10;1.00;;;;;;8332554;28;20183;-80
2022/05/13 18:03:08;;;;;;;4.53;1.80;;;17.00;1.00;;;;;;8321668;28;20182;-75
2022/05/13 18:07:08;;;;;;;8.80;1.90;;;16.90;1.00;;;;;;8320899;28;20183;-76
2022/05/13 18:11:10;;;;;;;3.83;2.00;;;16.80;1.00;;;;;;8338995;28;20252;-75
2022/05/13 18:15:14;;;;;;;4.53;2.20;;;16.60;1.00;;;;;;8321316;28;20204;-80
2022/05/13 18:19:15;;;;;;;2.60;1.83;;;16.50;1.00;;;;;;8317995;28;20190;-75
2022/05/13 18:23:17;;;;;;;3.93;1.90;;;16.30;1.00;;;;;;8334865;28;20202;-80
2022/05/13 18:27:18;;;;;;;4.73;2.00;;;16.20;1.00;;;;;;8324151;28;20201;-77
2022/05/13 18:31:21;;;;;;;3.80;1.50;;;16.00;1.00;;;;;;8323502;28;20301;-76
2022/05/13 18:35:22;;;;;;;6.00;2.10;;;15.80;1.00;;;;;;8326230;28;20205;-80
2022/05/13 18:39:23;;;;;;;4.43;1.93;;;15.60;1.00;;;;;;8319217;28;20204;-75
2022/05/13 18:47:44;;;;;;;4.47;2.00;;;15.40;6.00;;;;;;8342473;28;20209;-80
2022/05/13 18:51:45;;;;;;;6.10;1.83;;;15.20;18.10;;;;;;8338007;28;20202;-80
2022/05/13 18:55:46;;;;;;;7.67;1.90;;;15.20;17.90;;;;;;8336944;28;20201;-75
2022/05/13 18:59:48;;;;;;;5.93;2.07;;;15.20;19.20;;;;;;8318491;28;20247;-77
2022/05/13 19:03:49;;;;;;;5.93;1.80;;;15.00;56.50;;;;;;8326664;28;20261;-80
2022/05/13 19:07:50;;;;;;;6.37;2.43;;;14.90;54.30;;;;;;8336972;28;20186;-79
2022/05/13 19:11:52;;;;;;;9.17;2.90;;;14.70;80.50;;;;;;8333694;28;20644;-78
2022/05/13 19:15:54;;;;;;;6.17;2.57;;;14.50;96.00;;;;;;8318489;28;20265;-78
2022/05/13 19:19:55;;;;;;;6.67;2.33;;;14.40;99.90;;;;;;8328309;28;20194;-77
2022/05/13 19:23:57;;;;;;;3.23;1.97;;;14.20;99.90;;;;;;8329062;28;20187;-79
2022/05/13 19:27:58;;;;;;;6.07;1.40;;;14.00;99.90;;;;;;8326091;28;20312;-78
2022/05/13 19:31:58;;;;;;;3.13;1.73;;;13.80;99.90;;;;;;8336907;28;20202;-79
2022/05/13 19:36:00;;;;;;;3.77;1.90;;;13.60;99.90;;;;;;8328693;28;20193;-77
2022/05/13 19:40:01;;;;;;;2.70;1.47;;;13.40;99.90;;;;;;8328622;28;20210;-79
2022/05/13 19:44:05;;;;;;;3.23;1.63;;;13.10;99.90;;;;;;8343952;28;20186;-78
2022/05/13 19:48:08;;;;;;;6.33;1.70;;;12.80;99.90;;;;;;8325744;28;20193;-79
2022/05/13 19:52:09;;;;;;;3.50;1.57;;;12.60;99.90;;;;;;8325442;28;20213;-79
2022/05/13 19:56:10;;;;;;;2.57;1.53;;;12.40;99.90;;;;;;8328476;28;20270;-78
2022/05/13 20:00:18;;;;;;;4.67;1.30;;;12.20;99.90;;;;;;8337316;28;20224;-78
2022/05/13 20:04:19;;;;;;;3.33;1.50;;;12.10;1.00;;;;;;8333221;28;20268;-77
2022/05/13 20:12:39;;;;;;;6.97;1.63;;;11.80;1.00;;;;;;8344078;28;20253;-79
2022/05/13 20:16:40;;;;;;;2.00;1.37;;;11.60;1.00;;;;;;8328107;28;20190;-78
2022/05/13 20:25:03;;;;;;;4.53;1.70;;;11.40;1.00;;;;;;8339231;28;20209;-78
2022/05/13 20:29:06;;;;;;;2.63;1.37;;;11.30;4.50;;;;;;8344084;28;20649;-78
2022/05/13 20:33:07;;;;;;;3.17;1.77;;;11.30;21.50;;;;;;8341381;28;20275;-79
2022/05/13 20:37:08;;;;;;;4.80;1.90;;;11.20;65.90;;;;;;8322787;28;20282;-79
2022/05/13 20:41:10;;;;;;;4.07;2.07;;;11.20;99.90;;;;;;8320894;28;20220;-79
2022/05/13 20:45:11;;;;;;;3.60;2.10;;;11.20;99.90;;;;;;8327968;28;20305;-79
2022/05/13 20:49:12;;;;;;;4.73;1.90;;;11.20;93.40;;;;;;8345777;28;20198;-79
2022/05/13 20:53:13;;;;;;;5.73;2.00;;;11.20;97.90;;;;;;8319828;28;20276;-78
2022/05/13 20:57:15;;;;;;;4.43;1.87;;;11.20;99.90;;;;;;8341060;28;20190;-79
2022/05/13 21:01:19;;;;;;;4.57;2.10;;;11.20;99.90;;;;;;8327283;28;20194;-79
2022/05/13 21:05:24;;;;;;;2.03;1.80;;;11.30;99.90;;;;;;8329883;28;20308;-78
2022/05/13 21:09:24;;;;;;;6.00;2.13;;;11.40;62.90;;;;;;8323141;28;20222;-78
2022/05/13 21:13:25;;;;;;;6.43;1.97;;;11.50;22.30;;;;;;8343768;28;20214;-78
2022/05/13 21:17:27;;;;;;;4.20;2.40;;;11.50;1.90;;;;;;8318602;28;20228;-79
2022/05/13 21:21:28;;;;;;;4.83;2.30;;;11.40;24.90;;;;;;8318653;28;20190;-78
2022/05/13 21:25:29;;;;;;;3.17;2.10;;;11.30;52.50;;;;;;8327089;28;20244;-78
2022/05/13 21:29:31;;;;;;;4.37;2.30;;;11.20;46.40;;;;;;8327621;28;20210;-79
2022/05/13 21:37:52;;;;;;;6.83;2.20;;;11.30;14.80;;;;;;8343395;28;20200;-79
2022/05/13 21:41:53;;;;;;;2.87;1.87;;;11.40;1.00;;;;;;8324333;28;20214;-79
2022/05/13 21:45:54;;;;;;;3.70;1.90;;;11.30;14.30;;;;;;8329298;28;20339;-78
2022/05/13 21:49:55;;;;;;;2.67;1.70;;;11.20;45.20;;;;;;8331843;28;20186;-79
2022/05/13 21:53:55;;;;;;;3.10;1.80;;;11.00;76.50;;;;;;8331860;28;20294;-78
2022/05/13 21:58:00;;;;;;;2.27;1.47;;;10.90;99.90;;;;;;8345640;28;20213;-78
2022/05/13 22:02:01;;;;;;;4.03;2.10;;;10.80;99.90;;;;;;8320151;28;20186;-79
2022/05/13 22:06:02;;;;;;;2.83;1.97;;;10.70;99.90;;;;;;8319609;28;20209;-77
2022/05/13 22:10:04;;;;;;;3.87;1.90;;;10.60;99.90;;;;;;8323571;28;20205;-78
2022/05/13 22:14:06;;;;;;;3.63;1.80;;;10.50;99.90;;;;;;8342067;28;20216;-78
2022/05/13 22:18:07;;;;;;;3.00;2.00;;;10.40;99.90;;;;;;8327368;28;20321;-78
2022/05/13 22:22:08;;;;;;;5.00;2.60;;;10.30;99.90;;;;;;8320608;28;20194;-78
2022/05/13 22:26:08;;;;;;;5.77;2.20;;;10.30;99.90;;;;;;8322607;28;20190;-78
2022/05/13 22:30:10;;;;;;;4.90;2.23;;;10.30;99.90;;;;;;8328986;28;20201;-78
2022/05/13 22:34:11;;;;;;;4.47;1.90;;;10.20;1.00;;;;;;8326196;28;20255;-78
2022/05/13 22:38:13;;;;;;;3.33;1.87;;;10.10;1.00;;;;;;8325739;28;20186;-78
2022/05/13 22:42:14;;;;;;;3.40;1.90;;;10.00;20.20;;;;;;8319472;28;20191;-77
2022/05/13 22:46:15;;;;;;;4.87;2.20;;;10.00;75.00;;;;;;8324599;28;20187;-77
2022/05/13 22:50:17;;;;;;;2.63;2.20;;;10.00;90.50;;;;;;8322603;28;20193;-78
2022/05/13 22:54:18;;;;;;;3.00;1.87;;;10.00;99.90;;;;;;8318462;28;20304;-78
2022/05/13 22:58:21;;;;;;;6.57;2.10;;;10.00;99.90;;;;;;8327716;28;20189;-78